sensor_id;sensor_type;location;lat;lon;timestamp;P1;durP1;ratioP1;P2;durP2;ratioP2
15553;SDS011;7878;44.632;10.942;2022-08-27T00:00:54;9.13;;;5.53;;
15553;SDS011;7878;44.632;10.942;2022-08-27T00:03:19;10.48;;;5.35;;
15553;SDS011;7878;44.632;10.942;2022-08-27T00:05:45;6.00;;;5.45;;
15553;SDS011;7878;44.632;10.942;2022-08-27T00:08:11;7.75;;;5.45;;
15553;SDS011;7878;44.632;10.942;2022-08-27T00:10:37;7.10;;;5.20;;
15553;SDS011;7878;44.632;10.942;2022-08-27T00:13:04;7.85;;;5.60;;
15553;SDS011;7878;44.632;10.942;2022-08-27T00:15:30;9.07;;;5.90;;
15553;SDS011;7878;44.632;10.942;2022-08-27T00:17:56;10.20;;;5.72;;
15553;SDS011;7878;44.632;10.942;2022-08-27T00:20:23;9.25;;;5.95;;
15553;SDS011;7878;44.632;10.942;2022-08-27T00:22:50;5.50;;;5.00;;
15553;SDS011;7878;44.632;10.942;2022-08-27T00:25:17;12.18;;;6.50;;
15553;SDS011;7878;44.632;10.942;2022-08-27T00:27:43;7.32;;;5.38;;
15553;SDS011;7878;44.632;10.942;2022-08-27T00:30:11;8.95;;;5.38;;
15553;SDS011;7878;44.632;10.942;2022-08-27T00:32:38;7.32;;;5.05;;
15553;SDS011;7878;44.632;10.942;2022-08-27T00:35:04;6.57;;;5.50;;
15553;SDS011;7878;44.632;10.942;2022-08-27T00:37:31;7.78;;;5.38;;
15553;SDS011;7878;44.632;10.942;2022-08-27T00:39:58;6.75;;;5.43;;
15553;SDS011;7878;44.632;10.942;2022-08-27T00:42:24;5.97;;;5.38;;
15553;SDS011;7878;44.632;10.942;2022-08-27T00:44:50;11.85;;;5.75;;
15553;SDS011;7878;44.632;10.942;2022-08-27T00:47:20;12.00;;;6.60;;
15553;SDS011;7878;44.632;10.942;2022-08-27T00:49:53;8.75;;;6.32;;
15553;SDS011;7878;44.632;10.942;2022-08-27T00:54:52;8.95;;;5.28;;
15553;SDS011;7878;44.632;10.942;2022-08-27T00:57:24;5.55;;;5.05;;
15553;SDS011;7878;44.632;10.942;2022-08-27T00:59:51;6.35;;;5.75;;
15553;SDS011;7878;44.632;10.942;2022-08-27T01:02:17;8.07;;;5.28;;
15553;SDS011;7878;44.632;10.942;2022-08-27T01:04:47;5.97;;;5.38;;
15553;SDS011;7878;44.632;10.942;2022-08-27T01:07:25;6.60;;;5.10;;
15553;SDS011;7878;44.632;10.942;2022-08-27T01:09:55;9.18;;;5.10;;
15553;SDS011;7878;44.632;10.942;2022-08-27T01:12:23;8.15;;;5.78;;
15553;SDS011;7878;44.632;10.942;2022-08-27T01:14:49;8.27;;;5.88;;
15553;SDS011;7878;44.632;10.942;2022-08-27T01:17:15;7.47;;;5.85;;
15553;SDS011;7878;44.632;10.942;2022-08-27T01:22:32;5.60;;;5.15;;
15553;SDS011;7878;44.632;10.942;2022-08-27T01:25:16;6.35;;;5.28;;
15553;SDS011;7878;44.632;10.942;2022-08-27T01:27:44;7.20;;;5.95;;
15553;SDS011;7878;44.632;10.942;2022-08-27T01:30:17;8.80;;;4.90;;
15553;SDS011;7878;44.632;10.942;2022-08-27T01:32:44;12.52;;;5.45;;
15553;SDS011;7878;44.632;10.942;2022-08-27T01:35:12;5.65;;;5.00;;
15553;SDS011;7878;44.632;10.942;2022-08-27T01:37:39;7.72;;;5.05;;
15553;SDS011;7878;44.632;10.942;2022-08-27T01:40:06;5.78;;;5.28;;
15553;SDS011;7878;44.632;10.942;2022-08-27T01:42:34;8.48;;;5.57;;
15553;SDS011;7878;44.632;10.942;2022-08-27T01:47:34;11.10;;;6.10;;
15553;SDS011;7878;44.632;10.942;2022-08-27T01:50:06;6.40;;;5.55;;
15553;SDS011;7878;44.632;10.942;2022-08-27T01:52:35;7.63;;;5.30;;
15553;SDS011;7878;44.632;10.942;2022-08-27T01:55:00;5.65;;;5.10;;
15553;SDS011;7878;44.632;10.942;2022-08-27T01:57:28;6.07;;;5.57;;
15553;SDS011;7878;44.632;10.942;2022-08-27T01:59:54;7.05;;;5.72;;
15553;SDS011;7878;44.632;10.942;2022-08-27T02:02:21;8.45;;;6.22;;
15553;SDS011;7878;44.632;10.942;2022-08-27T02:04:48;10.73;;;5.72;;
15553;SDS011;7878;44.632;10.942;2022-08-27T02:07:15;7.00;;;5.93;;
15553;SDS011;7878;44.632;10.942;2022-08-27T02:09:41;6.65;;;6.00;;
15553;SDS011;7878;44.632;10.942;2022-08-27T02:12:07;11.43;;;6.97;;
15553;SDS011;7878;44.632;10.942;2022-08-27T02:14:32;7.05;;;6.35;;
15553;SDS011;7878;44.632;10.942;2022-08-27T02:16:58;6.95;;;5.82;;
15553;SDS011;7878;44.632;10.942;2022-08-27T02:19:24;9.52;;;6.10;;
15553;SDS011;7878;44.632;10.942;2022-08-27T02:21:51;6.63;;;5.95;;
15553;SDS011;7878;44.632;10.942;2022-08-27T02:24:17;9.30;;;6.00;;
15553;SDS011;7878;44.632;10.942;2022-08-27T02:26:42;7.43;;;6.05;;
15553;SDS011;7878;44.632;10.942;2022-08-27T02:29:08;6.78;;;5.88;;
15553;SDS011;7878;44.632;10.942;2022-08-27T02:31:34;8.68;;;5.85;;
15553;SDS011;7878;44.632;10.942;2022-08-27T02:34:00;8.45;;;6.15;;
15553;SDS011;7878;44.632;10.942;2022-08-27T02:36:27;7.88;;;6.05;;
15553;SDS011;7878;44.632;10.942;2022-08-27T02:38:54;6.80;;;6.07;;
15553;SDS011;7878;44.632;10.942;2022-08-27T02:41:20;7.90;;;6.00;;
15553;SDS011;7878;44.632;10.942;2022-08-27T02:43:46;10.93;;;6.53;;
15553;SDS011;7878;44.632;10.942;2022-08-27T02:46:12;7.82;;;6.22;;
15553;SDS011;7878;44.632;10.942;2022-08-27T02:48:38;7.60;;;5.43;;
15553;SDS011;7878;44.632;10.942;2022-08-27T02:51:05;8.40;;;5.68;;
15553;SDS011;7878;44.632;10.942;2022-08-27T02:53:32;11.63;;;6.63;;
15553;SDS011;7878;44.632;10.942;2022-08-27T02:55:59;9.75;;;6.32;;
15553;SDS011;7878;44.632;10.942;2022-08-27T02:58:24;7.35;;;6.43;;
15553;SDS011;7878;44.632;10.942;2022-08-27T03:00:50;8.13;;;6.28;;
15553;SDS011;7878;44.632;10.942;2022-08-27T03:03:16;8.05;;;6.57;;
15553;SDS011;7878;44.632;10.942;2022-08-27T03:05:42;8.40;;;6.32;;
15553;SDS011;7878;44.632;10.942;2022-08-27T03:08:08;7.85;;;5.85;;
15553;SDS011;7878;44.632;10.942;2022-08-27T03:10:34;7.70;;;6.82;;
15553;SDS011;7878;44.632;10.942;2022-08-27T03:12:59;7.43;;;6.28;;
15553;SDS011;7878;44.632;10.942;2022-08-27T03:15:25;6.78;;;5.82;;
15553;SDS011;7878;44.632;10.942;2022-08-27T03:17:51;9.43;;;6.00;;
15553;SDS011;7878;44.632;10.942;2022-08-27T03:20:39;9.45;;;6.82;;
15553;SDS011;7878;44.632;10.942;2022-08-27T03:23:07;8.75;;;6.03;;
15553;SDS011;7878;44.632;10.942;2022-08-27T03:25:33;7.95;;;5.60;;
15553;SDS011;7878;44.632;10.942;2022-08-27T03:27:59;7.18;;;6.13;;
15553;SDS011;7878;44.632;10.942;2022-08-27T03:30:25;7.78;;;5.95;;
15553;SDS011;7878;44.632;10.942;2022-08-27T03:32:51;6.32;;;5.57;;
15553;SDS011;7878;44.632;10.942;2022-08-27T03:35:17;8.40;;;6.50;;
15553;SDS011;7878;44.632;10.942;2022-08-27T03:37:44;9.57;;;5.97;;
15553;SDS011;7878;44.632;10.942;2022-08-27T03:40:10;8.07;;;5.65;;
15553;SDS011;7878;44.632;10.942;2022-08-27T03:42:36;8.20;;;6.18;;
15553;SDS011;7878;44.632;10.942;2022-08-27T03:45:03;8.77;;;5.70;;
15553;SDS011;7878;44.632;10.942;2022-08-27T03:47:30;6.82;;;5.72;;
15553;SDS011;7878;44.632;10.942;2022-08-27T03:49:57;6.43;;;5.53;;
15553;SDS011;7878;44.632;10.942;2022-08-27T03:52:24;7.80;;;5.97;;
15553;SDS011;7878;44.632;10.942;2022-08-27T03:54:51;6.65;;;6.03;;
15553;SDS011;7878;44.632;10.942;2022-08-27T03:57:16;8.95;;;5.68;;
15553;SDS011;7878;44.632;10.942;2022-08-27T03:59:42;10.82;;;6.03;;
15553;SDS011;7878;44.632;10.942;2022-08-27T04:02:08;8.63;;;5.82;;
15553;SDS011;7878;44.632;10.942;2022-08-27T04:04:34;11.02;;;6.15;;
15553;SDS011;7878;44.632;10.942;2022-08-27T04:07:00;10.20;;;5.95;;
15553;SDS011;7878;44.632;10.942;2022-08-27T04:09:26;7.30;;;5.85;;
15553;SDS011;7878;44.632;10.942;2022-08-27T04:11:51;7.38;;;6.50;;
15553;SDS011;7878;44.632;10.942;2022-08-27T04:14:17;7.47;;;6.57;;
15553;SDS011;7878;44.632;10.942;2022-08-27T04:16:43;10.75;;;6.78;;
15553;SDS011;7878;44.632;10.942;2022-08-27T04:19:09;11.60;;;7.53;;
15553;SDS011;7878;44.632;10.942;2022-08-27T04:21:36;8.13;;;7.15;;
15553;SDS011;7878;44.632;10.942;2022-08-27T04:24:02;9.50;;;7.32;;
15553;SDS011;7878;44.632;10.942;2022-08-27T04:26:28;9.52;;;8.48;;
15553;SDS011;7878;44.632;10.942;2022-08-27T04:28:55;12.07;;;7.63;;
15553;SDS011;7878;44.632;10.942;2022-08-27T04:31:22;8.70;;;7.80;;
15553;SDS011;7878;44.632;10.942;2022-08-27T04:33:48;11.00;;;7.82;;
15553;SDS011;7878;44.632;10.942;2022-08-27T04:36:13;9.18;;;7.70;;
15553;SDS011;7878;44.632;10.942;2022-08-27T04:38:39;11.15;;;7.70;;
15553;SDS011;7878;44.632;10.942;2022-08-27T04:41:05;11.68;;;8.40;;
15553;SDS011;7878;44.632;10.942;2022-08-27T04:44:11;10.23;;;7.63;;
15553;SDS011;7878;44.632;10.942;2022-08-27T04:46:37;8.30;;;7.05;;
15553;SDS011;7878;44.632;10.942;2022-08-27T04:49:09;11.75;;;8.18;;
15553;SDS011;7878;44.632;10.942;2022-08-27T04:51:37;11.18;;;7.13;;
15553;SDS011;7878;44.632;10.942;2022-08-27T04:54:03;13.57;;;6.93;;
15553;SDS011;7878;44.632;10.942;2022-08-27T04:56:30;13.10;;;7.20;;
15553;SDS011;7878;44.632;10.942;2022-08-27T04:58:56;9.25;;;7.28;;
15553;SDS011;7878;44.632;10.942;2022-08-27T05:01:23;10.13;;;7.22;;
15553;SDS011;7878;44.632;10.942;2022-08-27T05:03:51;8.52;;;6.97;;
15553;SDS011;7878;44.632;10.942;2022-08-27T05:06:17;7.90;;;6.30;;
15553;SDS011;7878;44.632;10.942;2022-08-27T05:08:44;7.95;;;6.68;;
15553;SDS011;7878;44.632;10.942;2022-08-27T05:11:12;8.30;;;6.43;;
15553;SDS011;7878;44.632;10.942;2022-08-27T05:13:40;10.00;;;7.35;;
15553;SDS011;7878;44.632;10.942;2022-08-27T05:16:08;8.55;;;6.85;;
15553;SDS011;7878;44.632;10.942;2022-08-27T05:18:36;8.10;;;7.30;;
15553;SDS011;7878;44.632;10.942;2022-08-27T05:21:03;10.75;;;6.72;;
15553;SDS011;7878;44.632;10.942;2022-08-27T05:23:30;9.65;;;7.45;;
15553;SDS011;7878;44.632;10.942;2022-08-27T05:25:56;10.65;;;7.57;;
15553;SDS011;7878;44.632;10.942;2022-08-27T05:28:24;12.07;;;8.05;;
15553;SDS011;7878;44.632;10.942;2022-08-27T05:30:51;10.48;;;8.23;;
15553;SDS011;7878;44.632;10.942;2022-08-27T05:33:19;10.70;;;7.85;;
15553;SDS011;7878;44.632;10.942;2022-08-27T05:35:47;11.15;;;7.30;;
15553;SDS011;7878;44.632;10.942;2022-08-27T05:38:15;12.45;;;7.28;;
15553;SDS011;7878;44.632;10.942;2022-08-27T05:40:42;10.10;;;8.00;;
15553;SDS011;7878;44.632;10.942;2022-08-27T05:43:09;7.75;;;6.95;;
15553;SDS011;7878;44.632;10.942;2022-08-27T05:45:46;12.73;;;7.47;;
15553;SDS011;7878;44.632;10.942;2022-08-27T05:48:16;8.10;;;7.30;;
15553;SDS011;7878;44.632;10.942;2022-08-27T05:50:42;8.32;;;7.18;;
15553;SDS011;7878;44.632;10.942;2022-08-27T05:53:09;9.65;;;7.55;;
15553;SDS011;7878;44.632;10.942;2022-08-27T05:55:37;7.43;;;6.70;;
15553;SDS011;7878;44.632;10.942;2022-08-27T05:58:05;22.35;;;7.28;;
15553;SDS011;7878;44.632;10.942;2022-08-27T06:00:31;10.07;;;6.95;;
15553;SDS011;7878;44.632;10.942;2022-08-27T06:03:16;12.13;;;7.85;;
15553;SDS011;7878;44.632;10.942;2022-08-27T06:05:42;10.85;;;7.35;;
15553;SDS011;7878;44.632;10.942;2022-08-27T06:08:08;10.70;;;7.13;;
15553;SDS011;7878;44.632;10.942;2022-08-27T06:10:33;8.80;;;7.32;;
15553;SDS011;7878;44.632;10.942;2022-08-27T06:13:03;11.20;;;7.18;;
15553;SDS011;7878;44.632;10.942;2022-08-27T06:15:28;12.23;;;6.80;;
15553;SDS011;7878;44.632;10.942;2022-08-27T06:17:55;10.02;;;6.57;;
15553;SDS011;7878;44.632;10.942;2022-08-27T06:20:21;8.40;;;5.72;;
15553;SDS011;7878;44.632;10.942;2022-08-27T06:22:47;9.90;;;6.40;;
15553;SDS011;7878;44.632;10.942;2022-08-27T06:25:13;10.63;;;7.05;;
15553;SDS011;7878;44.632;10.942;2022-08-27T06:27:39;9.73;;;5.78;;
15553;SDS011;7878;44.632;10.942;2022-08-27T06:30:04;11.27;;;6.20;;
15553;SDS011;7878;44.632;10.942;2022-08-27T06:32:31;8.13;;;6.05;;
15553;SDS011;7878;44.632;10.942;2022-08-27T06:34:56;11.48;;;6.07;;
15553;SDS011;7878;44.632;10.942;2022-08-27T06:37:22;8.25;;;5.57;;
15553;SDS011;7878;44.632;10.942;2022-08-27T06:39:48;9.27;;;5.53;;
15553;SDS011;7878;44.632;10.942;2022-08-27T06:42:15;9.73;;;5.60;;
15553;SDS011;7878;44.632;10.942;2022-08-27T06:44:41;9.45;;;5.75;;
15553;SDS011;7878;44.632;10.942;2022-08-27T06:47:07;12.30;;;6.00;;
15553;SDS011;7878;44.632;10.942;2022-08-27T06:49:33;9.43;;;6.57;;
15553;SDS011;7878;44.632;10.942;2022-08-27T06:51:59;11.55;;;6.35;;
15553;SDS011;7878;44.632;10.942;2022-08-27T06:54:25;10.23;;;5.97;;
15553;SDS011;7878;44.632;10.942;2022-08-27T06:56:50;9.60;;;5.90;;
15553;SDS011;7878;44.632;10.942;2022-08-27T06:59:17;6.53;;;5.55;;
15553;SDS011;7878;44.632;10.942;2022-08-27T07:01:45;12.85;;;6.03;;
15553;SDS011;7878;44.632;10.942;2022-08-27T07:04:16;15.75;;;6.35;;
15553;SDS011;7878;44.632;10.942;2022-08-27T07:06:47;17.75;;;6.10;;
15553;SDS011;7878;44.632;10.942;2022-08-27T07:09:14;9.82;;;6.38;;
15553;SDS011;7878;44.632;10.942;2022-08-27T07:11:40;8.57;;;6.20;;
15553;SDS011;7878;44.632;10.942;2022-08-27T07:14:06;8.02;;;5.65;;
15553;SDS011;7878;44.632;10.942;2022-08-27T07:16:33;9.98;;;6.15;;
15553;SDS011;7878;44.632;10.942;2022-08-27T07:19:00;12.20;;;6.32;;
15553;SDS011;7878;44.632;10.942;2022-08-27T07:21:27;7.38;;;5.90;;
15553;SDS011;7878;44.632;10.942;2022-08-27T07:23:54;15.25;;;6.70;;
15553;SDS011;7878;44.632;10.942;2022-08-27T07:26:23;7.95;;;6.68;;
15553;SDS011;7878;44.632;10.942;2022-08-27T07:28:49;9.10;;;5.80;;
15553;SDS011;7878;44.632;10.942;2022-08-27T07:31:17;11.40;;;5.88;;
15553;SDS011;7878;44.632;10.942;2022-08-27T07:33:44;10.25;;;6.30;;
15553;SDS011;7878;44.632;10.942;2022-08-27T07:36:11;16.77;;;6.13;;
15553;SDS011;7878;44.632;10.942;2022-08-27T07:38:37;7.35;;;5.97;;
15553;SDS011;7878;44.632;10.942;2022-08-27T07:41:06;10.85;;;5.88;;
15553;SDS011;7878;44.632;10.942;2022-08-27T07:43:33;7.18;;;6.13;;
15553;SDS011;7878;44.632;10.942;2022-08-27T07:46:18;17.60;;;7.25;;
15553;SDS011;7878;44.632;10.942;2022-08-27T07:48:46;6.40;;;5.80;;
15553;SDS011;7878;44.632;10.942;2022-08-27T07:51:16;7.75;;;6.72;;
15553;SDS011;7878;44.632;10.942;2022-08-27T07:53:44;12.57;;;7.80;;
15553;SDS011;7878;44.632;10.942;2022-08-27T07:56:10;9.57;;;6.60;;
15553;SDS011;7878;44.632;10.942;2022-08-27T07:58:36;14.65;;;6.80;;
15553;SDS011;7878;44.632;10.942;2022-08-27T08:01:03;11.02;;;6.38;;
15553;SDS011;7878;44.632;10.942;2022-08-27T08:03:29;8.75;;;6.75;;
15553;SDS011;7878;44.632;10.942;2022-08-27T08:05:55;9.30;;;6.90;;
15553;SDS011;7878;44.632;10.942;2022-08-27T08:08:25;9.18;;;6.05;;
15553;SDS011;7878;44.632;10.942;2022-08-27T08:10:51;9.43;;;7.28;;
15553;SDS011;7878;44.632;10.942;2022-08-27T08:13:20;11.20;;;7.18;;
15553;SDS011;7878;44.632;10.942;2022-08-27T08:15:46;8.48;;;7.68;;
15553;SDS011;7878;44.632;10.942;2022-08-27T08:18:12;8.07;;;7.28;;
15553;SDS011;7878;44.632;10.942;2022-08-27T08:20:38;10.25;;;6.97;;
15553;SDS011;7878;44.632;10.942;2022-08-27T08:23:04;7.38;;;6.50;;
15553;SDS011;7878;44.632;10.942;2022-08-27T08:25:30;8.77;;;6.30;;
15553;SDS011;7878;44.632;10.942;2022-08-27T08:27:56;16.73;;;6.80;;
15553;SDS011;7878;44.632;10.942;2022-08-27T08:30:21;12.23;;;6.88;;
15553;SDS011;7878;44.632;10.942;2022-08-27T08:32:47;9.73;;;7.10;;
15553;SDS011;7878;44.632;10.942;2022-08-27T08:35:13;8.18;;;6.45;;
15553;SDS011;7878;44.632;10.942;2022-08-27T08:37:41;11.75;;;7.07;;
15553;SDS011;7878;44.632;10.942;2022-08-27T08:40:07;17.00;;;7.35;;
15553;SDS011;7878;44.632;10.942;2022-08-27T08:45:08;13.40;;;7.88;;
15553;SDS011;7878;44.632;10.942;2022-08-27T08:47:48;10.95;;;7.20;;
15553;SDS011;7878;44.632;10.942;2022-08-27T08:53:37;7.25;;;6.35;;
15553;SDS011;7878;44.632;10.942;2022-08-27T08:56:08;16.67;;;8.40;;
15553;SDS011;7878;44.632;10.942;2022-08-27T09:01:21;10.98;;;8.73;;
15553;SDS011;7878;44.632;10.942;2022-08-27T09:03:51;13.38;;;9.80;;
15553;SDS011;7878;44.632;10.942;2022-08-27T09:09:20;17.23;;;10.45;;
15553;SDS011;7878;44.632;10.942;2022-08-27T09:11:51;9.55;;;8.55;;
15553;SDS011;7878;44.632;10.942;2022-08-27T09:16:49;11.05;;;8.02;;
15553;SDS011;7878;44.632;10.942;2022-08-27T09:19:14;11.63;;;7.30;;
15553;SDS011;7878;44.632;10.942;2022-08-27T09:26:53;9.88;;;6.20;;
15553;SDS011;7878;44.632;10.942;2022-08-27T09:29:19;10.10;;;7.10;;
15553;SDS011;7878;44.632;10.942;2022-08-27T09:31:52;9.13;;;7.00;;
15553;SDS011;7878;44.632;10.942;2022-08-27T09:34:20;8.05;;;6.95;;
15553;SDS011;7878;44.632;10.942;2022-08-27T09:36:48;9.57;;;8.50;;
15553;SDS011;7878;44.632;10.942;2022-08-27T09:39:15;9.38;;;7.15;;
15553;SDS011;7878;44.632;10.942;2022-08-27T09:41:41;8.80;;;7.75;;
15553;SDS011;7878;44.632;10.942;2022-08-27T09:44:12;11.85;;;9.00;;
15553;SDS011;7878;44.632;10.942;2022-08-27T09:46:54;12.23;;;8.73;;
15553;SDS011;7878;44.632;10.942;2022-08-27T09:49:23;15.52;;;8.13;;
15553;SDS011;7878;44.632;10.942;2022-08-27T09:51:50;11.88;;;9.25;;
15553;SDS011;7878;44.632;10.942;2022-08-27T09:54:36;11.85;;;9.80;;
15553;SDS011;7878;44.632;10.942;2022-08-27T09:57:08;13.80;;;12.13;;
15553;SDS011;7878;44.632;10.942;2022-08-27T09:59:37;17.75;;;12.40;;
15553;SDS011;7878;44.632;10.942;2022-08-27T10:02:14;20.95;;;11.35;;
15553;SDS011;7878;44.632;10.942;2022-08-27T10:04:45;26.50;;;9.80;;
15553;SDS011;7878;44.632;10.942;2022-08-27T10:09:50;17.33;;;7.78;;
15553;SDS011;7878;44.632;10.942;2022-08-27T10:12:29;19.38;;;6.78;;
15553;SDS011;7878;44.632;10.942;2022-08-27T10:15:00;11.45;;;7.70;;
15553;SDS011;7878;44.632;10.942;2022-08-27T10:20:28;17.50;;;6.45;;
15553;SDS011;7878;44.632;10.942;2022-08-27T10:50:10;10.80;;;7.97;;
15553;SDS011;7878;44.632;10.942;2022-08-27T10:52:56;10.43;;;7.30;;
15553;SDS011;7878;44.632;10.942;2022-08-27T10:55:31;13.38;;;7.32;;
15553;SDS011;7878;44.632;10.942;2022-08-27T11:03:39;5.95;;;2.75;;
15553;SDS011;7878;44.632;10.942;2022-08-27T11:06:21;5.22;;;2.65;;
15553;SDS011;7878;44.632;10.942;2022-08-27T11:09:05;2.55;;;2.00;;
15553;SDS011;7878;44.632;10.942;2022-08-27T11:11:41;5.07;;;2.40;;
15553;SDS011;7878;44.632;10.942;2022-08-27T11:14:34;7.68;;;2.40;;
15553;SDS011;7878;44.632;10.942;2022-08-27T11:17:00;3.40;;;2.63;;
15553;SDS011;7878;44.632;10.942;2022-08-27T11:19:32;5.53;;;2.10;;
15553;SDS011;7878;44.632;10.942;2022-08-27T11:22:12;3.00;;;2.25;;
15553;SDS011;7878;44.632;10.942;2022-08-27T11:27:28;2.40;;;2.20;;
15553;SDS011;7878;44.632;10.942;2022-08-27T11:43:36;7.35;;;3.17;;
15553;SDS011;7878;44.632;10.942;2022-08-27T11:46:03;7.38;;;3.28;;
15553;SDS011;7878;44.632;10.942;2022-08-27T11:48:33;6.15;;;4.18;;
15553;SDS011;7878;44.632;10.942;2022-08-27T11:53:31;9.88;;;4.10;;
15553;SDS011;7878;44.632;10.942;2022-08-27T11:56:14;4.93;;;3.90;;
15553;SDS011;7878;44.632;10.942;2022-08-27T11:58:44;4.72;;;3.45;;
15553;SDS011;7878;44.632;10.942;2022-08-27T12:01:13;8.25;;;3.65;;
15553;SDS011;7878;44.632;10.942;2022-08-27T12:03:58;11.40;;;4.35;;
15553;SDS011;7878;44.632;10.942;2022-08-27T12:06:48;14.07;;;5.53;;
15553;SDS011;7878;44.632;10.942;2022-08-27T12:09:25;10.25;;;4.05;;
15553;SDS011;7878;44.632;10.942;2022-08-27T12:14:35;10.68;;;5.00;;
15553;SDS011;7878;44.632;10.942;2022-08-27T12:17:47;8.10;;;5.70;;
15553;SDS011;7878;44.632;10.942;2022-08-27T12:25:24;15.70;;;6.00;;
15553;SDS011;7878;44.632;10.942;2022-08-27T12:27:58;12.55;;;6.15;;
15553;SDS011;7878;44.632;10.942;2022-08-27T12:30:34;12.93;;;6.18;;
15553;SDS011;7878;44.632;10.942;2022-08-27T12:36:07;7.93;;;5.28;;
15553;SDS011;7878;44.632;10.942;2022-08-27T12:38:45;12.02;;;5.63;;
15553;SDS011;7878;44.632;10.942;2022-08-27T12:41:27;7.13;;;5.75;;
15553;SDS011;7878;44.632;10.942;2022-08-27T12:44:05;7.10;;;5.00;;
15553;SDS011;7878;44.632;10.942;2022-08-27T12:46:35;7.18;;;5.70;;
15553;SDS011;7878;44.632;10.942;2022-08-27T12:49:17;7.38;;;5.45;;
15553;SDS011;7878;44.632;10.942;2022-08-27T13:01:36;8.23;;;6.47;;
15553;SDS011;7878;44.632;10.942;2022-08-27T13:03:32;10.65;;;7.05;;
15553;SDS011;7878;44.632;10.942;2022-08-27T13:06:12;7.32;;;6.53;;
15553;SDS011;7878;44.632;10.942;2022-08-27T13:09:03;10.55;;;7.25;;
15553;SDS011;7878;44.632;10.942;2022-08-27T13:11:42;7.63;;;6.93;;
15553;SDS011;7878;44.632;10.942;2022-08-27T13:14:16;12.02;;;8.00;;
15553;SDS011;7878;44.632;10.942;2022-08-27T13:17:02;8.73;;;7.82;;
15553;SDS011;7878;44.632;10.942;2022-08-27T13:19:34;12.07;;;7.80;;
15553;SDS011;7878;44.632;10.942;2022-08-27T13:22:28;8.75;;;7.60;;
15553;SDS011;7878;44.632;10.942;2022-08-27T13:24:56;10.23;;;7.35;;
15553;SDS011;7878;44.632;10.942;2022-08-27T13:27:26;12.98;;;8.48;;
15553;SDS011;7878;44.632;10.942;2022-08-27T13:29:54;8.05;;;7.25;;
15553;SDS011;7878;44.632;10.942;2022-08-27T13:32:21;8.48;;;7.50;;
15553;SDS011;7878;44.632;10.942;2022-08-27T13:34:51;10.90;;;7.90;;
15553;SDS011;7878;44.632;10.942;2022-08-27T13:37:22;11.80;;;8.93;;
15553;SDS011;7878;44.632;10.942;2022-08-27T13:39:51;10.75;;;9.20;;
15553;SDS011;7878;44.632;10.942;2022-08-27T13:42:19;13.55;;;9.27;;
15553;SDS011;7878;44.632;10.942;2022-08-27T13:44:45;11.68;;;8.57;;
15553;SDS011;7878;44.632;10.942;2022-08-27T13:47:16;9.40;;;8.50;;
15553;SDS011;7878;44.632;10.942;2022-08-27T13:49:47;10.20;;;9.10;;
15553;SDS011;7878;44.632;10.942;2022-08-27T13:52:33;11.57;;;9.13;;
15553;SDS011;7878;44.632;10.942;2022-08-27T13:55:03;9.38;;;8.13;;
15553;SDS011;7878;44.632;10.942;2022-08-27T13:57:47;9.50;;;8.50;;
15553;SDS011;7878;44.632;10.942;2022-08-27T14:02:51;10.40;;;7.60;;
15553;SDS011;7878;44.632;10.942;2022-08-27T14:07:53;9.25;;;7.38;;
15553;SDS011;7878;44.632;10.942;2022-08-27T14:15:47;9.10;;;8.20;;
15553;SDS011;7878;44.632;10.942;2022-08-27T14:20:52;8.35;;;7.50;;
15553;SDS011;7878;44.632;10.942;2022-08-27T14:23:19;7.68;;;6.82;;
15553;SDS011;7878;44.632;10.942;2022-08-27T14:25:44;10.15;;;7.00;;
15553;SDS011;7878;44.632;10.942;2022-08-27T14:28:11;9.70;;;7.20;;
15553;SDS011;7878;44.632;10.942;2022-08-27T14:30:37;7.65;;;6.55;;
15553;SDS011;7878;44.632;10.942;2022-08-27T14:33:03;10.07;;;7.03;;
15553;SDS011;7878;44.632;10.942;2022-08-27T14:35:30;6.88;;;6.18;;
15553;SDS011;7878;44.632;10.942;2022-08-27T14:38:00;7.78;;;7.07;;
15553;SDS011;7878;44.632;10.942;2022-08-27T14:40:35;7.10;;;6.40;;
15553;SDS011;7878;44.632;10.942;2022-08-27T14:43:01;7.50;;;6.75;;
15553;SDS011;7878;44.632;10.942;2022-08-27T14:45:27;7.80;;;6.38;;
15553;SDS011;7878;44.632;10.942;2022-08-27T14:47:53;7.97;;;7.22;;
15553;SDS011;7878;44.632;10.942;2022-08-27T14:50:18;7.60;;;6.47;;
15553;SDS011;7878;44.632;10.942;2022-08-27T14:52:45;7.82;;;7.10;;
15553;SDS011;7878;44.632;10.942;2022-08-27T14:55:11;11.35;;;7.47;;
15553;SDS011;7878;44.632;10.942;2022-08-27T14:57:38;8.85;;;6.45;;
15553;SDS011;7878;44.632;10.942;2022-08-27T15:00:05;7.40;;;6.70;;
15553;SDS011;7878;44.632;10.942;2022-08-27T15:02:32;7.28;;;6.57;;
15553;SDS011;7878;44.632;10.942;2022-08-27T15:04:58;7.95;;;5.60;;
15553;SDS011;7878;44.632;10.942;2022-08-27T15:07:24;6.13;;;5.38;;
15553;SDS011;7878;44.632;10.942;2022-08-27T15:09:50;6.40;;;5.65;;
15553;SDS011;7878;44.632;10.942;2022-08-27T15:12:16;11.63;;;5.20;;
15553;SDS011;7878;44.632;10.942;2022-08-27T15:14:42;6.03;;;5.43;;
15553;SDS011;7878;44.632;10.942;2022-08-27T15:17:08;4.30;;;3.90;;
15553;SDS011;7878;44.632;10.942;2022-08-27T15:19:33;5.57;;;3.85;;
15553;SDS011;7878;44.632;10.942;2022-08-27T15:22:02;3.95;;;3.55;;
15553;SDS011;7878;44.632;10.942;2022-08-27T15:24:42;6.55;;;4.13;;
15553;SDS011;7878;44.632;10.942;2022-08-27T15:27:10;5.07;;;4.63;;
15553;SDS011;7878;44.632;10.942;2022-08-27T15:29:35;4.95;;;4.05;;
15553;SDS011;7878;44.632;10.942;2022-08-27T15:32:02;8.52;;;4.95;;
15553;SDS011;7878;44.632;10.942;2022-08-27T15:34:29;7.20;;;4.30;;
15553;SDS011;7878;44.632;10.942;2022-08-27T15:36:55;7.05;;;3.92;;
15553;SDS011;7878;44.632;10.942;2022-08-27T15:39:21;4.32;;;3.90;;
15553;SDS011;7878;44.632;10.942;2022-08-27T15:41:47;5.28;;;4.13;;
15553;SDS011;7878;44.632;10.942;2022-08-27T15:44:13;4.53;;;4.10;;
15553;SDS011;7878;44.632;10.942;2022-08-27T15:46:39;5.90;;;4.78;;
15553;SDS011;7878;44.632;10.942;2022-08-27T15:49:06;6.88;;;5.07;;
15553;SDS011;7878;44.632;10.942;2022-08-27T15:51:35;7.57;;;5.40;;
15553;SDS011;7878;44.632;10.942;2022-08-27T15:54:02;8.38;;;4.90;;
15553;SDS011;7878;44.632;10.942;2022-08-27T15:56:27;9.32;;;5.32;;
15553;SDS011;7878;44.632;10.942;2022-08-27T15:58:53;5.55;;;5.05;;
15553;SDS011;7878;44.632;10.942;2022-08-27T16:01:29;5.93;;;4.95;;
15553;SDS011;7878;44.632;10.942;2022-08-27T16:03:57;8.30;;;6.10;;
15553;SDS011;7878;44.632;10.942;2022-08-27T16:06:23;8.63;;;6.38;;
15553;SDS011;7878;44.632;10.942;2022-08-27T16:08:50;8.98;;;6.43;;
15553;SDS011;7878;44.632;10.942;2022-08-27T16:11:17;7.65;;;6.38;;
15553;SDS011;7878;44.632;10.942;2022-08-27T16:13:43;8.50;;;6.60;;
15553;SDS011;7878;44.632;10.942;2022-08-27T16:16:09;5.63;;;5.13;;
15553;SDS011;7878;44.632;10.942;2022-08-27T16:18:35;5.97;;;5.38;;
15553;SDS011;7878;44.632;10.942;2022-08-27T16:21:04;6.15;;;5.55;;
15553;SDS011;7878;44.632;10.942;2022-08-27T16:23:30;9.38;;;5.97;;
15553;SDS011;7878;44.632;10.942;2022-08-27T16:25:57;6.82;;;6.18;;
15553;SDS011;7878;44.632;10.942;2022-08-27T16:28:23;5.93;;;5.30;;
15553;SDS011;7878;44.632;10.942;2022-08-27T16:30:50;7.20;;;5.22;;
15553;SDS011;7878;44.632;10.942;2022-08-27T16:33:17;9.15;;;6.03;;
15553;SDS011;7878;44.632;10.942;2022-08-27T16:35:44;9.70;;;5.22;;
15553;SDS011;7878;44.632;10.942;2022-08-27T16:38:09;6.30;;;5.30;;
15553;SDS011;7878;44.632;10.942;2022-08-27T16:40:40;9.45;;;6.30;;
15553;SDS011;7878;44.632;10.942;2022-08-27T16:43:09;7.53;;;5.80;;
15553;SDS011;7878;44.632;10.942;2022-08-27T16:45:38;8.00;;;5.97;;
15553;SDS011;7878;44.632;10.942;2022-08-27T16:48:04;7.38;;;6.20;;
15553;SDS011;7878;44.632;10.942;2022-08-27T16:50:48;8.55;;;6.28;;